Terminal Aerodrome Forecast
Issued by NWS

Home | Current Version | Previous Version | Text Only | Print | Product List | Glossary On
Versions: 1 2 3 4 5 6 7 8 9 10 11 12 13 14 15 16 17 18 19 20 21 22 23 24 25
769
FTUS41 KPBZ 141120
TAFDUJ
TAF
KDUJ 141120Z 1412/1512 29006KT P6SM BKN035
      TEMPO 1412/1415 BKN025
     FM142100 24005KT P6SM SCT035
     FM150500 15005KT P6SM BKN080
     FM150900 16010KT P6SM OVC010=

USA.gov is the U.S. government's official web portal to all federal, state and local government web resources and services.